sensor_id;sensor_type;location;lat;lon;timestamp;P1;durP1;ratioP1;P2;durP2;ratioP2
52468;SDS011;38381;53.688;10.776;2023-04-20T00:04:10;3.13;;;2.20;;
52468;SDS011;38381;53.688;10.776;2023-04-20T00:09:12;3.72;;;2.55;;
52468;SDS011;38381;53.688;10.776;2023-04-20T00:14:14;2.65;;;2.20;;
52468;SDS011;38381;53.688;10.776;2023-04-20T00:19:14;3.05;;;2.25;;
52468;SDS011;38381;53.688;10.776;2023-04-20T00:24:15;3.83;;;3.13;;
52468;SDS011;38381;53.688;10.776;2023-04-20T00:29:15;3.13;;;2.60;;
52468;SDS011;38381;53.688;10.776;2023-04-20T00:34:16;3.20;;;2.10;;
52468;SDS011;38381;53.688;10.776;2023-04-20T00:39:16;3.40;;;2.55;;
52468;SDS011;38381;53.688;10.776;2023-04-20T00:44:17;3.53;;;2.60;;
52468;SDS011;38381;53.688;10.776;2023-04-20T00:49:17;2.60;;;2.37;;
52468;SDS011;38381;53.688;10.776;2023-04-20T00:54:17;2.83;;;2.30;;
52468;SDS011;38381;53.688;10.776;2023-04-20T00:59:18;5.13;;;3.10;;
52468;SDS011;38381;53.688;10.776;2023-04-20T01:04:20;4.03;;;3.17;;
52468;SDS011;38381;53.688;10.776;2023-04-20T01:09:20;4.10;;;3.47;;
52468;SDS011;38381;53.688;10.776;2023-04-20T01:14:21;6.00;;;3.63;;
52468;SDS011;38381;53.688;10.776;2023-04-20T01:19:21;3.13;;;2.45;;
52468;SDS011;38381;53.688;10.776;2023-04-20T01:24:22;5.95;;;3.17;;
52468;SDS011;38381;53.688;10.776;2023-04-20T01:29:22;3.50;;;2.72;;
52468;SDS011;38381;53.688;10.776;2023-04-20T01:34:22;6.05;;;3.22;;
52468;SDS011;38381;53.688;10.776;2023-04-20T01:39:23;4.13;;;2.97;;
52468;SDS011;38381;53.688;10.776;2023-04-20T01:44:23;4.22;;;2.70;;
52468;SDS011;38381;53.688;10.776;2023-04-20T01:49:24;4.90;;;2.63;;
52468;SDS011;38381;53.688;10.776;2023-04-20T01:54:24;4.30;;;3.08;;
52468;SDS011;38381;53.688;10.776;2023-04-20T01:59:25;3.45;;;2.50;;
52468;SDS011;38381;53.688;10.776;2023-04-20T02:04:25;6.15;;;3.65;;
52468;SDS011;38381;53.688;10.776;2023-04-20T02:09:26;4.28;;;3.30;;
52468;SDS011;38381;53.688;10.776;2023-04-20T02:14:26;4.35;;;3.47;;
52468;SDS011;38381;53.688;10.776;2023-04-20T02:19:26;4.68;;;2.97;;
52468;SDS011;38381;53.688;10.776;2023-04-20T02:24:27;5.23;;;3.40;;
52468;SDS011;38381;53.688;10.776;2023-04-20T02:29:27;4.82;;;2.97;;
52468;SDS011;38381;53.688;10.776;2023-04-20T02:34:28;6.38;;;3.88;;
52468;SDS011;38381;53.688;10.776;2023-04-20T02:39:28;6.78;;;3.17;;
52468;SDS011;38381;53.688;10.776;2023-04-20T02:44:28;3.13;;;2.65;;
52468;SDS011;38381;53.688;10.776;2023-04-20T02:49:29;6.70;;;2.95;;
52468;SDS011;38381;53.688;10.776;2023-04-20T02:54:29;6.95;;;4.40;;
52468;SDS011;38381;53.688;10.776;2023-04-20T02:59:30;4.00;;;2.90;;
52468;SDS011;38381;53.688;10.776;2023-04-20T03:04:30;6.00;;;4.18;;
52468;SDS011;38381;53.688;10.776;2023-04-20T03:09:31;6.22;;;3.28;;
52468;SDS011;38381;53.688;10.776;2023-04-20T03:14:31;6.78;;;3.65;;
52468;SDS011;38381;53.688;10.776;2023-04-20T03:19:31;5.00;;;4.38;;
52468;SDS011;38381;53.688;10.776;2023-04-20T03:24:32;4.57;;;3.23;;
52468;SDS011;38381;53.688;10.776;2023-04-20T03:29:33;9.57;;;4.80;;
52468;SDS011;38381;53.688;10.776;2023-04-20T03:34:33;5.30;;;4.35;;
52468;SDS011;38381;53.688;10.776;2023-04-20T03:39:34;5.72;;;3.67;;
52468;SDS011;38381;53.688;10.776;2023-04-20T03:44:34;4.55;;;3.75;;
52468;SDS011;38381;53.688;10.776;2023-04-20T03:49:35;6.55;;;4.15;;
52468;SDS011;38381;53.688;10.776;2023-04-20T03:54:35;3.97;;;3.55;;
52468;SDS011;38381;53.688;10.776;2023-04-20T03:59:35;7.17;;;4.53;;
52468;SDS011;38381;53.688;10.776;2023-04-20T04:04:36;8.60;;;4.43;;
52468;SDS011;38381;53.688;10.776;2023-04-20T04:09:38;6.20;;;4.00;;
52468;SDS011;38381;53.688;10.776;2023-04-20T04:14:38;6.00;;;4.38;;
52468;SDS011;38381;53.688;10.776;2023-04-20T04:19:38;6.43;;;4.85;;
52468;SDS011;38381;53.688;10.776;2023-04-20T04:24:39;7.57;;;4.50;;
52468;SDS011;38381;53.688;10.776;2023-04-20T04:29:40;10.70;;;4.82;;
52468;SDS011;38381;53.688;10.776;2023-04-20T04:34:41;4.40;;;3.67;;
52468;SDS011;38381;53.688;10.776;2023-04-20T04:39:44;5.32;;;3.47;;
52468;SDS011;38381;53.688;10.776;2023-04-20T04:44:45;6.20;;;4.03;;
52468;SDS011;38381;53.688;10.776;2023-04-20T04:49:46;8.23;;;4.72;;
52468;SDS011;38381;53.688;10.776;2023-04-20T04:54:47;6.10;;;5.30;;
52468;SDS011;38381;53.688;10.776;2023-04-20T04:59:48;7.60;;;4.47;;
52468;SDS011;38381;53.688;10.776;2023-04-20T05:04:48;8.02;;;5.22;;
52468;SDS011;38381;53.688;10.776;2023-04-20T05:09:49;7.50;;;4.78;;
52468;SDS011;38381;53.688;10.776;2023-04-20T05:14:51;8.70;;;4.10;;
52468;SDS011;38381;53.688;10.776;2023-04-20T05:19:52;4.65;;;3.63;;
52468;SDS011;38381;53.688;10.776;2023-04-20T05:24:52;6.10;;;4.20;;
52468;SDS011;38381;53.688;10.776;2023-04-20T05:29:52;6.22;;;4.28;;
52468;SDS011;38381;53.688;10.776;2023-04-20T05:34:53;6.03;;;5.07;;
52468;SDS011;38381;53.688;10.776;2023-04-20T05:39:53;8.18;;;4.88;;
52468;SDS011;38381;53.688;10.776;2023-04-20T05:44:54;9.67;;;5.60;;
52468;SDS011;38381;53.688;10.776;2023-04-20T05:49:54;5.35;;;4.13;;
52468;SDS011;38381;53.688;10.776;2023-04-20T05:54:54;5.88;;;4.97;;
52468;SDS011;38381;53.688;10.776;2023-04-20T05:59:55;5.90;;;4.68;;
52468;SDS011;38381;53.688;10.776;2023-04-20T06:04:56;5.40;;;4.90;;
52468;SDS011;38381;53.688;10.776;2023-04-20T06:09:56;8.70;;;4.25;;
52468;SDS011;38381;53.688;10.776;2023-04-20T06:14:57;6.07;;;5.45;;
52468;SDS011;38381;53.688;10.776;2023-04-20T06:19:57;5.57;;;4.65;;
52468;SDS011;38381;53.688;10.776;2023-04-20T06:24:58;6.80;;;4.87;;
52468;SDS011;38381;53.688;10.776;2023-04-20T06:29:59;7.90;;;5.05;;
52468;SDS011;38381;53.688;10.776;2023-04-20T06:35:00;9.10;;;4.70;;
52468;SDS011;38381;53.688;10.776;2023-04-20T06:40:00;7.80;;;5.45;;
52468;SDS011;38381;53.688;10.776;2023-04-20T06:45:01;8.40;;;5.90;;
52468;SDS011;38381;53.688;10.776;2023-04-20T06:50:02;5.82;;;5.28;;
52468;SDS011;38381;53.688;10.776;2023-04-20T06:55:06;9.23;;;5.18;;
52468;SDS011;38381;53.688;10.776;2023-04-20T07:00:07;9.85;;;6.47;;
52468;SDS011;38381;53.688;10.776;2023-04-20T07:05:09;10.82;;;6.88;;
52468;SDS011;38381;53.688;10.776;2023-04-20T07:10:11;8.00;;;6.32;;
52468;SDS011;38381;53.688;10.776;2023-04-20T07:15:12;8.30;;;5.25;;
52468;SDS011;38381;53.688;10.776;2023-04-20T07:20:13;9.68;;;5.55;;
52468;SDS011;38381;53.688;10.776;2023-04-20T07:25:13;8.40;;;4.72;;
52468;SDS011;38381;53.688;10.776;2023-04-20T07:30:14;7.53;;;5.38;;
52468;SDS011;38381;53.688;10.776;2023-04-20T07:35:14;6.15;;;4.97;;
52468;SDS011;38381;53.688;10.776;2023-04-20T07:40:15;6.78;;;5.28;;
52468;SDS011;38381;53.688;10.776;2023-04-20T07:45:16;8.75;;;7.68;;
52468;SDS011;38381;53.688;10.776;2023-04-20T07:50:16;6.65;;;4.82;;
52468;SDS011;38381;53.688;10.776;2023-04-20T07:55:17;9.88;;;6.70;;
52468;SDS011;38381;53.688;10.776;2023-04-20T08:00:17;8.68;;;6.38;;
52468;SDS011;38381;53.688;10.776;2023-04-20T08:05:18;12.23;;;6.55;;
52468;SDS011;38381;53.688;10.776;2023-04-20T08:10:19;7.78;;;6.47;;
52468;SDS011;38381;53.688;10.776;2023-04-20T08:15:20;7.68;;;6.82;;
52468;SDS011;38381;53.688;10.776;2023-04-20T08:20:20;7.35;;;5.50;;
52468;SDS011;38381;53.688;10.776;2023-04-20T08:25:21;10.07;;;7.13;;
52468;SDS011;38381;53.688;10.776;2023-04-20T08:30:21;12.85;;;6.38;;
52468;SDS011;38381;53.688;10.776;2023-04-20T08:35:22;8.95;;;6.18;;
52468;SDS011;38381;53.688;10.776;2023-04-20T08:40:22;9.80;;;6.55;;
52468;SDS011;38381;53.688;10.776;2023-04-20T08:45:24;10.13;;;6.78;;
52468;SDS011;38381;53.688;10.776;2023-04-20T08:50:25;10.05;;;6.15;;
52468;SDS011;38381;53.688;10.776;2023-04-20T08:55:26;7.25;;;5.72;;
52468;SDS011;38381;53.688;10.776;2023-04-20T09:00:26;6.60;;;5.93;;
52468;SDS011;38381;53.688;10.776;2023-04-20T09:05:27;10.05;;;5.80;;
52468;SDS011;38381;53.688;10.776;2023-04-20T09:10:38;10.00;;;6.20;;
52468;SDS011;38381;53.688;10.776;2023-04-20T09:15:42;10.15;;;7.57;;
52468;SDS011;38381;53.688;10.776;2023-04-20T09:20:43;7.78;;;5.68;;
52468;SDS011;38381;53.688;10.776;2023-04-20T09:25:44;10.95;;;6.55;;
52468;SDS011;38381;53.688;10.776;2023-04-20T09:30:46;9.63;;;6.18;;
52468;SDS011;38381;53.688;10.776;2023-04-20T09:35:48;9.07;;;6.35;;
52468;SDS011;38381;53.688;10.776;2023-04-20T09:40:48;10.93;;;6.85;;
52468;SDS011;38381;53.688;10.776;2023-04-20T09:45:50;6.65;;;6.00;;
52468;SDS011;38381;53.688;10.776;2023-04-20T09:50:51;11.95;;;6.78;;
52468;SDS011;38381;53.688;10.776;2023-04-20T09:55:51;8.63;;;6.53;;
52468;SDS011;38381;53.688;10.776;2023-04-20T10:00:52;9.40;;;5.68;;
52468;SDS011;38381;53.688;10.776;2023-04-20T10:05:52;8.85;;;6.15;;
52468;SDS011;38381;53.688;10.776;2023-04-20T10:10:54;11.52;;;6.13;;
52468;SDS011;38381;53.688;10.776;2023-04-20T10:15:55;9.63;;;6.78;;
52468;SDS011;38381;53.688;10.776;2023-04-20T10:21:05;8.60;;;6.32;;
52468;SDS011;38381;53.688;10.776;2023-04-20T10:26:09;12.38;;;7.18;;
52468;SDS011;38381;53.688;10.776;2023-04-20T10:31:11;9.00;;;6.22;;
52468;SDS011;38381;53.688;10.776;2023-04-20T10:36:20;6.90;;;5.57;;
52468;SDS011;38381;53.688;10.776;2023-04-20T10:41:25;12.85;;;6.38;;
52468;SDS011;38381;53.688;10.776;2023-04-20T10:46:26;9.88;;;6.05;;
52468;SDS011;38381;53.688;10.776;2023-04-20T10:51:26;6.70;;;5.95;;
52468;SDS011;38381;53.688;10.776;2023-04-20T10:56:34;10.63;;;6.97;;
52468;SDS011;38381;53.688;10.776;2023-04-20T11:01:36;10.15;;;6.53;;
52468;SDS011;38381;53.688;10.776;2023-04-20T11:06:40;7.25;;;6.53;;
52468;SDS011;38381;53.688;10.776;2023-04-20T11:11:43;7.63;;;6.40;;
52468;SDS011;38381;53.688;10.776;2023-04-20T11:16:50;8.15;;;6.35;;
52468;SDS011;38381;53.688;10.776;2023-04-20T11:21:51;11.27;;;7.35;;
52468;SDS011;38381;53.688;10.776;2023-04-20T11:26:52;11.38;;;8.90;;
52468;SDS011;38381;53.688;10.776;2023-04-20T11:31:53;16.17;;;7.82;;
52468;SDS011;38381;53.688;10.776;2023-04-20T11:36:54;12.07;;;9.43;;
52468;SDS011;38381;53.688;10.776;2023-04-20T11:41:55;9.20;;;7.77;;
52468;SDS011;38381;53.688;10.776;2023-04-20T11:46:56;11.98;;;7.93;;
52468;SDS011;38381;53.688;10.776;2023-04-20T11:51:57;7.68;;;6.97;;
52468;SDS011;38381;53.688;10.776;2023-04-20T11:56:57;9.13;;;6.90;;
52468;SDS011;38381;53.688;10.776;2023-04-20T12:01:58;9.48;;;7.97;;
52468;SDS011;38381;53.688;10.776;2023-04-20T12:07:02;9.40;;;7.47;;
52468;SDS011;38381;53.688;10.776;2023-04-20T12:12:03;10.73;;;7.70;;
52468;SDS011;38381;53.688;10.776;2023-04-20T12:17:05;13.57;;;8.67;;
52468;SDS011;38381;53.688;10.776;2023-04-20T12:22:06;12.50;;;9.30;;
52468;SDS011;38381;53.688;10.776;2023-04-20T12:27:06;11.38;;;9.55;;
52468;SDS011;38381;53.688;10.776;2023-04-20T12:32:07;11.50;;;9.48;;
52468;SDS011;38381;53.688;10.776;2023-04-20T12:37:07;13.43;;;9.63;;
52468;SDS011;38381;53.688;10.776;2023-04-20T12:42:08;15.40;;;8.93;;
52468;SDS011;38381;53.688;10.776;2023-04-20T12:47:08;15.90;;;9.43;;
52468;SDS011;38381;53.688;10.776;2023-04-20T12:52:09;8.50;;;7.38;;
52468;SDS011;38381;53.688;10.776;2023-04-20T12:57:09;9.15;;;8.10;;
52468;SDS011;38381;53.688;10.776;2023-04-20T13:02:10;9.57;;;7.43;;
52468;SDS011;38381;53.688;10.776;2023-04-20T13:07:11;8.90;;;7.47;;
52468;SDS011;38381;53.688;10.776;2023-04-20T13:12:12;10.10;;;7.85;;
52468;SDS011;38381;53.688;10.776;2023-04-20T13:17:12;10.73;;;8.18;;
52468;SDS011;38381;53.688;10.776;2023-04-20T13:22:13;9.18;;;8.27;;
52468;SDS011;38381;53.688;10.776;2023-04-20T13:27:14;11.05;;;8.18;;
52468;SDS011;38381;53.688;10.776;2023-04-20T13:32:15;8.02;;;6.82;;
52468;SDS011;38381;53.688;10.776;2023-04-20T13:37:15;17.13;;;10.20;;
52468;SDS011;38381;53.688;10.776;2023-04-20T13:42:16;11.18;;;9.18;;
52468;SDS011;38381;53.688;10.776;2023-04-20T13:47:17;10.20;;;7.23;;
52468;SDS011;38381;53.688;10.776;2023-04-20T13:52:18;9.88;;;8.95;;
52468;SDS011;38381;53.688;10.776;2023-04-20T13:57:18;15.35;;;8.45;;
52468;SDS011;38381;53.688;10.776;2023-04-20T14:02:19;9.90;;;6.82;;
52468;SDS011;38381;53.688;10.776;2023-04-20T14:07:19;8.60;;;6.72;;
52468;SDS011;38381;53.688;10.776;2023-04-20T14:12:20;8.88;;;7.25;;
52468;SDS011;38381;53.688;10.776;2023-04-20T14:17:21;10.18;;;7.75;;
52468;SDS011;38381;53.688;10.776;2023-04-20T14:22:21;9.93;;;7.70;;
52468;SDS011;38381;53.688;10.776;2023-04-20T14:27:21;11.23;;;7.35;;
52468;SDS011;38381;53.688;10.776;2023-04-20T14:32:22;7.43;;;6.33;;
52468;SDS011;38381;53.688;10.776;2023-04-20T14:37:22;13.13;;;9.25;;
52468;SDS011;38381;53.688;10.776;2023-04-20T14:42:25;10.48;;;6.25;;
52468;SDS011;38381;53.688;10.776;2023-04-20T14:47:25;12.33;;;7.33;;
52468;SDS011;38381;53.688;10.776;2023-04-20T14:52:26;9.15;;;6.45;;
52468;SDS011;38381;53.688;10.776;2023-04-20T14:57:26;8.70;;;5.85;;
52468;SDS011;38381;53.688;10.776;2023-04-20T15:02:26;7.25;;;5.78;;
52468;SDS011;38381;53.688;10.776;2023-04-20T15:07:27;7.70;;;6.00;;
52468;SDS011;38381;53.688;10.776;2023-04-20T15:12:27;9.35;;;6.85;;
52468;SDS011;38381;53.688;10.776;2023-04-20T15:17:28;9.77;;;6.35;;
52468;SDS011;38381;53.688;10.776;2023-04-20T15:22:28;8.37;;;5.67;;
52468;SDS011;38381;53.688;10.776;2023-04-20T15:27:29;9.20;;;5.20;;
52468;SDS011;38381;53.688;10.776;2023-04-20T15:32:30;7.65;;;6.18;;
52468;SDS011;38381;53.688;10.776;2023-04-20T15:37:33;8.57;;;6.22;;
52468;SDS011;38381;53.688;10.776;2023-04-20T15:42:33;13.80;;;6.72;;
52468;SDS011;38381;53.688;10.776;2023-04-20T15:47:33;11.80;;;6.32;;
52468;SDS011;38381;53.688;10.776;2023-04-20T15:52:34;11.23;;;6.50;;
52468;SDS011;38381;53.688;10.776;2023-04-20T15:57:34;9.82;;;6.25;;
52468;SDS011;38381;53.688;10.776;2023-04-20T16:02:35;7.43;;;6.57;;
52468;SDS011;38381;53.688;10.776;2023-04-20T16:07:37;14.60;;;6.47;;
52468;SDS011;38381;53.688;10.776;2023-04-20T16:12:37;8.85;;;5.95;;
52468;SDS011;38381;53.688;10.776;2023-04-20T16:17:38;9.77;;;5.85;;
52468;SDS011;38381;53.688;10.776;2023-04-20T16:22:38;9.23;;;7.00;;
52468;SDS011;38381;53.688;10.776;2023-04-20T16:27:39;9.77;;;6.25;;
52468;SDS011;38381;53.688;10.776;2023-04-20T16:32:39;9.05;;;6.50;;
52468;SDS011;38381;53.688;10.776;2023-04-20T16:37:40;9.67;;;6.23;;
52468;SDS011;38381;53.688;10.776;2023-04-20T16:42:40;9.70;;;6.70;;
52468;SDS011;38381;53.688;10.776;2023-04-20T16:47:40;8.03;;;6.33;;
52468;SDS011;38381;53.688;10.776;2023-04-20T16:52:41;15.18;;;6.57;;
52468;SDS011;38381;53.688;10.776;2023-04-20T16:57:41;9.50;;;6.88;;
52468;SDS011;38381;53.688;10.776;2023-04-20T17:02:42;11.52;;;5.57;;
52468;SDS011;38381;53.688;10.776;2023-04-20T17:07:43;6.90;;;5.47;;
52468;SDS011;38381;53.688;10.776;2023-04-20T17:12:44;11.27;;;6.53;;
52468;SDS011;38381;53.688;10.776;2023-04-20T17:17:45;7.13;;;5.70;;
52468;SDS011;38381;53.688;10.776;2023-04-20T17:22:45;11.43;;;6.57;;
52468;SDS011;38381;53.688;10.776;2023-04-20T17:27:46;7.70;;;6.15;;
52468;SDS011;38381;53.688;10.776;2023-04-20T17:32:46;7.45;;;5.55;;
52468;SDS011;38381;53.688;10.776;2023-04-20T17:37:47;8.52;;;6.07;;
52468;SDS011;38381;53.688;10.776;2023-04-20T17:42:47;11.52;;;6.40;;
52468;SDS011;38381;53.688;10.776;2023-04-20T17:47:48;9.30;;;6.43;;
52468;SDS011;38381;53.688;10.776;2023-04-20T17:52:48;12.13;;;6.20;;
52468;SDS011;38381;53.688;10.776;2023-04-20T17:57:50;11.70;;;7.17;;
52468;SDS011;38381;53.688;10.776;2023-04-20T18:02:50;9.40;;;6.78;;
52468;SDS011;38381;53.688;10.776;2023-04-20T18:07:51;7.07;;;6.13;;
52468;SDS011;38381;53.688;10.776;2023-04-20T18:12:51;9.63;;;6.72;;
52468;SDS011;38381;53.688;10.776;2023-04-20T18:17:53;7.25;;;5.50;;
52468;SDS011;38381;53.688;10.776;2023-04-20T18:22:54;8.70;;;6.70;;
52468;SDS011;38381;53.688;10.776;2023-04-20T18:27:54;11.30;;;6.65;;
52468;SDS011;38381;53.688;10.776;2023-04-20T18:32:55;8.77;;;7.15;;
52468;SDS011;38381;53.688;10.776;2023-04-20T18:37:55;7.88;;;6.45;;
52468;SDS011;38381;53.688;10.776;2023-04-20T18:42:56;7.47;;;6.55;;
52468;SDS011;38381;53.688;10.776;2023-04-20T18:47:56;11.35;;;6.72;;
52468;SDS011;38381;53.688;10.776;2023-04-20T18:52:59;9.45;;;6.85;;
52468;SDS011;38381;53.688;10.776;2023-04-20T18:58:00;9.32;;;7.45;;
52468;SDS011;38381;53.688;10.776;2023-04-20T19:03:00;9.95;;;7.57;;
52468;SDS011;38381;53.688;10.776;2023-04-20T19:08:01;8.23;;;6.70;;
52468;SDS011;38381;53.688;10.776;2023-04-20T19:13:01;8.30;;;7.18;;
52468;SDS011;38381;53.688;10.776;2023-04-20T19:18:02;9.07;;;6.43;;
52468;SDS011;38381;53.688;10.776;2023-04-20T19:23:02;10.23;;;7.30;;
52468;SDS011;38381;53.688;10.776;2023-04-20T19:28:03;9.77;;;7.28;;
52468;SDS011;38381;53.688;10.776;2023-04-20T19:33:03;9.45;;;7.25;;
52468;SDS011;38381;53.688;10.776;2023-04-20T19:38:04;13.85;;;7.95;;
52468;SDS011;38381;53.688;10.776;2023-04-20T19:43:04;8.93;;;8.00;;
52468;SDS011;38381;53.688;10.776;2023-04-20T19:48:05;10.38;;;7.55;;
52468;SDS011;38381;53.688;10.776;2023-04-20T19:53:05;8.68;;;6.82;;
52468;SDS011;38381;53.688;10.776;2023-04-20T19:58:06;11.30;;;7.15;;
52468;SDS011;38381;53.688;10.776;2023-04-20T20:03:08;8.05;;;6.65;;
52468;SDS011;38381;53.688;10.776;2023-04-20T20:08:10;8.40;;;7.35;;
52468;SDS011;38381;53.688;10.776;2023-04-20T20:13:10;7.85;;;7.15;;
52468;SDS011;38381;53.688;10.776;2023-04-20T20:18:11;8.20;;;7.40;;
52468;SDS011;38381;53.688;10.776;2023-04-20T20:23:11;10.43;;;8.52;;
52468;SDS011;38381;53.688;10.776;2023-04-20T20:28:12;9.48;;;7.80;;
52468;SDS011;38381;53.688;10.776;2023-04-20T20:33:12;10.88;;;7.85;;
52468;SDS011;38381;53.688;10.776;2023-04-20T20:38:13;8.10;;;7.22;;
52468;SDS011;38381;53.688;10.776;2023-04-20T20:43:13;7.85;;;7.05;;
52468;SDS011;38381;53.688;10.776;2023-04-20T20:48:14;7.90;;;6.25;;
52468;SDS011;38381;53.688;10.776;2023-04-20T20:53:14;10.90;;;7.07;;
52468;SDS011;38381;53.688;10.776;2023-04-20T20:58:16;8.77;;;7.55;;
52468;SDS011;38381;53.688;10.776;2023-04-20T21:03:16;10.32;;;6.88;;
52468;SDS011;38381;53.688;10.776;2023-04-20T21:08:17;8.80;;;7.63;;
52468;SDS011;38381;53.688;10.776;2023-04-20T21:13:18;10.25;;;7.82;;
52468;SDS011;38381;53.688;10.776;2023-04-20T21:18:18;8.27;;;6.88;;
52468;SDS011;38381;53.688;10.776;2023-04-20T21:23:19;9.53;;;7.30;;
52468;SDS011;38381;53.688;10.776;2023-04-20T21:28:19;11.90;;;7.97;;
52468;SDS011;38381;53.688;10.776;2023-04-20T21:33:20;9.55;;;7.15;;
52468;SDS011;38381;53.688;10.776;2023-04-20T21:38:20;14.95;;;9.10;;
52468;SDS011;38381;53.688;10.776;2023-04-20T21:43:20;7.75;;;7.03;;
52468;SDS011;38381;53.688;10.776;2023-04-20T21:48:21;10.48;;;8.18;;
52468;SDS011;38381;53.688;10.776;2023-04-20T21:53:21;10.70;;;8.93;;
52468;SDS011;38381;53.688;10.776;2023-04-20T21:58:22;11.15;;;8.18;;
52468;SDS011;38381;53.688;10.776;2023-04-20T22:03:22;8.80;;;7.93;;
52468;SDS011;38381;53.688;10.776;2023-04-20T22:08:23;8.38;;;7.57;;
52468;SDS011;38381;53.688;10.776;2023-04-20T22:13:23;8.57;;;7.68;;
52468;SDS011;38381;53.688;10.776;2023-04-20T22:18:23;10.73;;;8.07;;
52468;SDS011;38381;53.688;10.776;2023-04-20T22:23:24;10.40;;;8.43;;
52468;SDS011;38381;53.688;10.776;2023-04-20T22:28:24;10.80;;;7.60;;
52468;SDS011;38381;53.688;10.776;2023-04-20T22:33:25;8.68;;;7.20;;
52468;SDS011;38381;53.688;10.776;2023-04-20T22:38:25;13.23;;;7.82;;
52468;SDS011;38381;53.688;10.776;2023-04-20T22:43:26;9.25;;;6.15;;
52468;SDS011;38381;53.688;10.776;2023-04-20T22:48:27;15.70;;;11.73;;
52468;SDS011;38381;53.688;10.776;2023-04-20T22:53:27;10.10;;;7.95;;
52468;SDS011;38381;53.688;10.776;2023-04-20T22:58:30;9.65;;;7.30;;
52468;SDS011;38381;53.688;10.776;2023-04-20T23:03:31;8.15;;;7.32;;
52468;SDS011;38381;53.688;10.776;2023-04-20T23:08:31;9.70;;;8.55;;
52468;SDS011;38381;53.688;10.776;2023-04-20T23:13:32;10.45;;;7.65;;
52468;SDS011;38381;53.688;10.776;2023-04-20T23:18:33;11.07;;;7.45;;
52468;SDS011;38381;53.688;10.776;2023-04-20T23:23:33;13.05;;;7.05;;
52468;SDS011;38381;53.688;10.776;2023-04-20T23:28:34;9.98;;;7.95;;
52468;SDS011;38381;53.688;10.776;2023-04-20T23:33:34;8.88;;;6.82;;
52468;SDS011;38381;53.688;10.776;2023-04-20T23:38:35;12.20;;;6.43;;
52468;SDS011;38381;53.688;10.776;2023-04-20T23:43:35;9.67;;;7.83;;
52468;SDS011;38381;53.688;10.776;2023-04-20T23:48:37;8.45;;;7.32;;
52468;SDS011;38381;53.688;10.776;2023-04-20T23:53:38;8.38;;;7.30;;
52468;SDS011;38381;53.688;10.776;2023-04-20T23:58:38;9.20;;;7.57;;
